Tiempo atmosférico en la estación meteorológica de Nerja, Málaga (169 m.)



Fecha
DESCASC
Temp. máxima en grados centígrados (hora)
DESCASC
Temp. mínima en grados centígrados (hora)
DESCASC
Temp. media en grados centígrados
DESCASC
Racha de viento máxima en m/sg (hora)
DESCASC
Velocidad máxima media en intervalos de 10 minutos(hora)
DESCASC
Precipitaciones diarias en mm
DESCASC
Precipitaciones de 00:00 a 06:00 en mm
DESCASC
Precipitaciones de 06:00 a 12:00 en mm
DESCASC
Precipitaciones de 12:00 a 18:00 en mm
DESCASC
Precipitaciones de 18:00 a 24:00 en mm
DESCASC
18-08-2019 30.9 (19:20) 22.7 (08:30) 26.8 5 (06:00) 3.61 (06:00) 0 0 0 0 0
17-08-2019 28.1 (16:00) 21.8 (06:30) 24.9 4.17 (16:30) 2.22 (04:30) 0 0 0 0 0
16-08-2019 30.5 (13:30) 22.7 (07:00) 26.6 3.89 (14:50) 2.22 (17:40) 0 0 0 0 0
15-08-2019 29.7 (12:20) 21.3 (00:00) 25.5 4.17 (13:00) 2.22 (15:40) 0 0 0 0 0
14-08-2019 28.5 (16:50) 22.8 (00:00) 25.6 5.28 (14:00) 2.5 (14:00) 3.4 1.2 2.2 0 0
13-08-2019 30.8 (14:30) 22.8 (00:00) 26.8 5 (14:20) 2.5 (16:40) 0 0 0 0 0
12-08-2019 30.4 (12:30) 24 (00:00) 27.2 4.17 (05:40) 3.33 (05:40) 0 0 0 0 0
11-08-2019 30.8 (13:20) 21.1 (00:00) 25.9 4.44 (00:40) 2.22 (00:40) 0 0 0 0 0
10-08-2019 33.9 (17:50) 23.7 (00:00) 28.8 4.72 (11:20) 2.5 (18:10) 0 0 0 0 0
09-08-2019 34.2 (19:00) 23.2 (00:00) 28.7 4.72 (15:00) 2.5 (14:40) 0 0 0 0 0
08-08-2019 32.7 (15:30) 24.1 (00:00) 28.4 5 (03:20) 3.61 (03:10) 0 0 0 0 0
07-08-2019 35 (16:50) 23.2 (00:00) 29.1 5.83 (17:00) 3.06 (04:20) 0 0 0 0 0
06-08-2019 30.7 (15:50) 21.4 (00:00) 26.1 4.17 (13:50) 1.94 (07:30) 0 0 0 0 0
05-08-2019 29.5 (17:40) 22.1 (00:00) 25.8 4.72 (12:10) 2.22 (15:00) 0 0 0 0 0
04-08-2019 29.5 (15:30) 23.2 (00:00) 26.4 4.17 (15:40) 2.22 (16:20) 0 0 0 0 0
03-08-2019 28.9 (15:00) 21.8 (00:00) 25.3 4.72 (16:20) 2.5 (04:50) 0 0 0 0 0
02-08-2019 29.4 (18:40) 22 (00:00) 25.7 4.44 (15:40) 2.5 (08:30) 0 0 0 0 0
01-08-2019 29.4 (14:30) 21.5 (00:00) 25.4 5.28 (17:00) 3.06 (16:50) 0 0 0 0 0
31-07-2019 29.8 (14:30) 22.4 (00:00) 26.1 10.28 (02:00) 4.44 (02:00) 0 0 0 0 0
30-07-2019 31.3 (15:40) 19.7 (00:00) 25.5 4.17 (12:00) 1.94 (13:10) 0 0 0 0 0
29-07-2019 29.1 (17:40) 19.3 (00:00) 24.2 5.28 (17:30) 2.78 (17:30) 0 0 0 0 0
28-07-2019 28.2 (17:10) 20.6 (00:00) 24.4 6.11 (14:50) 3.06 (14:30) 0 0 0 0 0
27-07-2019 31.4 (19:20) 23.6 (00:00) 27.5 13.33 (18:10) 5 (16:20) 0 0 0 0 0
26-07-2019 31.8 (17:40) 20.6 (00:00) 26.2 8.61 (16:50) 4.72 (15:40) 0 0 0 0 0
25-07-2019 30.2 (14:50) 22.6 (00:00) 26.4 5 (15:00) 2.78 (17:00) 0 0 0 0 0
24-07-2019 30.3 (17:00) 22.1 (00:00) 26.2 5.28 (15:00) 3.06 (14:50) 0 0 0 0 0

Gráficas

Temp. máximas Temp. mínimas Temp. medias Precipitaciones Rachas de viento máximas Velocidades máximas media en intervalos de 10 minutos

Datos horarios

Fecha y hora oficial Temperatura (ºC) Velocidad del viento (km/h) Dirección del viento Racha (km/h) Dirección de racha Precipitación (mm) Presión (hPa) Tendencia (hPa) Humedad (%)
2019-08-22 23:00:00 23.7 3 Oeste 5 Este 0 -- -- 88
2019-08-22 22:00:00 24.4 2 Sudeste 8 Sudeste 0 -- -- 85
2019-08-22 21:00:00 24.5 0 Calma 16 Sudeste 0 -- -- 85
2019-08-22 20:00:00 25.1 4 Sudeste 15 Sur 0 -- -- 83
2019-08-22 19:00:00 25.9 6 Sudeste 23 Este 0 -- -- 79
2019-08-22 18:00:00 26.1 12 Sudeste 27 Este 0 -- -- 77
2019-08-22 17:00:00 26.4 10 Sudeste 27 Este 0 -- -- 75
2019-08-22 16:00:00 26 12 Sudeste 32 Sudeste 0 -- -- 74
2019-08-22 15:00:00 26.1 13 Sudeste 31 Este 0 -- -- 73
2019-08-22 14:00:00 28.1 14 Sudeste 32 Sudeste 0 -- -- 64
2019-08-22 13:00:00 28.2 10 Sudeste 31 Este 0 -- -- 59
2019-08-22 12:00:00 27.2 7 Sudeste 24 Sudeste 0 -- -- 63
2019-08-22 11:00:00 25.6 7 Sudeste 15 Sudeste 0 -- -- 69
2019-08-22 10:00:00 24.5 3 Sudeste 12 Sudeste 0 -- -- 82
2019-08-22 09:00:00 23.5 0 Calma 4 Norte 0 -- -- 88
2019-08-22 08:00:00 23.1 0 Calma 5 Norte 0 -- -- 91
2019-08-22 07:00:00 23.2 0 Calma 4 Oeste 0 -- -- 91
2019-08-22 06:00:00 23 0 Calma 4 Nordeste 0 -- -- 91
2019-08-22 05:00:00 23 0 Calma 5 Norte 0 -- -- 92
2019-08-22 04:00:00 22.9 3 Nordeste 13 Norte 0 -- -- 91
2019-08-22 03:00:00 22.8 6 Nordeste 10 Nordeste 0 -- -- 93
2019-08-22 02:00:00 23.4 3 Nordeste 8 Nordeste 0.6 -- -- 94
2019-08-22 01:00:00 23.5 6 Nordeste 15 Este 1.2 -- -- 92
2019-08-22 00:00:00 24.5 7 Sudeste 18 Este 0 -- -- 84
2019-08-21 23:00:00 24.7 10 Sudeste 19 Sudeste 0 -- -- 83
2019-08-21 22:00:00 24.9 7 Sudeste 17 Sudeste 0 -- -- 80
2019-08-21 21:00:00 25.3 5 Sudeste 14 Sudeste 0 -- -- 78
2019-08-21 20:00:00 25.8 5 Sudeste 12 Sudeste 0 -- -- 77
2019-08-21 19:00:00 26.1 5 Sudeste 17 Este 0 -- -- 76
2019-08-21 18:00:00 26.9 6 Sudeste 21 Sudeste 0 -- -- 73
2019-08-21 17:00:00 27.6 8 Sudeste 22 Este 0 -- -- 72
2019-08-21 16:00:00 28.6 10 Sudeste 35 Sudeste 0 -- -- 71
2019-08-21 15:00:00 28.2 10 Sudeste 32 Sudeste 0 -- -- 73
2019-08-21 14:00:00 27.4 8 Sudeste 26 Sudeste 0 -- -- 77
2019-08-21 13:00:00 27 7 Sudeste 13 Sudeste 0 -- -- 75
2019-08-21 12:00:00 27.7 7 Sur 15 Sudeste 0 -- -- 73
2019-08-21 11:00:00 26.6 5 Sur 11 Sur 0 -- -- 78
2019-08-21 10:00:00 25.1 3 Sur 8 Sur 0 -- -- 85
2019-08-21 09:00:00 24.9 4 Sur 8 Sur 0 -- -- 86
2019-08-21 08:00:00 24.5 4 Oeste 6 Oeste 0 -- -- 88
2019-08-21 07:00:00 24.4 4 Oeste 9 Oeste 0 -- -- 82
2019-08-21 06:00:00 24.5 0 Calma 5 Sudeste 0 -- -- 83
2019-08-21 05:00:00 24.3 2 Noroeste 9 Nordeste 0 -- -- 83
2019-08-21 04:00:00 24 3 Noroeste 10 Oeste 0 -- -- 85
2019-08-21 03:00:00 24.5 4 Oeste 15 Sudeste 0 -- -- 84
2019-08-21 02:00:00 25.2 7 Sudeste 26 Sudeste 0 -- -- 81
2019-08-21 01:00:00 25.1 6 Sudeste 26 Sudeste 0 -- -- 83
2019-08-21 00:00:00 24.5 3 Este 9 Este 0 -- -- 83
2019-08-20 23:00:00 24.8 0 Calma 4 Noroeste 0 -- -- 78
2019-08-20 22:00:00 25.3 2 Sudoeste 5 Sur 0 -- -- 78
2019-08-20 21:00:00 25.9 3 Sudeste 13 Sudeste 0 -- -- 76
2019-08-20 20:00:00 26.7 4 Sudeste 12 Este 0 -- -- 72
2019-08-20 19:00:00 27.7 5 Sudeste 15 Sur 0 -- -- 70
2019-08-20 18:00:00 27.4 6 Sudeste 15 Sudeste 0 -- -- 73
2019-08-20 17:00:00 27.8 6 Sudeste 18 Sudeste 0 -- -- 74
2019-08-20 16:00:00 28.4 6 Sur 23 Este 0 -- -- 71
2019-08-20 15:00:00 28 10 Sudeste 22 Este 0 -- -- 75
2019-08-20 14:00:00 27.4 8 Sudeste 19 Sudeste 0 -- -- 75
2019-08-20 13:00:00 27.2 8 Sudeste 19 Sudeste 0 -- -- 76
2019-08-20 12:00:00 26.9 9 Sudeste 20 Sudeste 0 -- -- 75
2019-08-20 11:00:00 25.6 8 Sudeste 20 Sur 0 -- -- 79
2019-08-20 10:00:00 24.8 5 Sudoeste 8 Sudoeste 0 -- -- 78
2019-08-20 09:00:00 22.3 0 Calma 5 Norte 0 -- -- 75
2019-08-20 08:00:00 21.1 0 Calma 6 Norte 0 -- -- 74
2019-08-20 07:00:00 21.3 0 Calma 9 Norte 0 -- -- 75
2019-08-20 06:00:00 22 6 Norte 10 Nordeste 0 -- -- 70
2019-08-20 05:00:00 21.9 6 Norte 10 Norte 0 -- -- 78
2019-08-20 04:00:00 22 0 Calma 10 Norte 0 -- -- 82
2019-08-20 03:00:00 22 4 Oeste 11 Oeste 0 -- -- 85
2019-08-20 02:00:00 22.2 0 Calma 11 Oeste 0 -- -- 84
2019-08-20 01:00:00 22.6 5 Oeste 9 Oeste 0 -- -- 78
2019-08-20 00:00:00 24.2 5 Este 10 Este 0 -- -- 81
2019-08-19 23:00:00 25.3 4 Este 9 Este 0 -- -- 63
2019-08-19 22:00:00 27.3 0 Calma 6 Norte 0 -- -- 58
2019-08-19 21:00:00 29.9 0 Calma 8 Oeste 0 -- -- 56
2019-08-19 20:00:00 32.2 3 Sudoeste 12 Sur 0 -- -- 44
2019-08-19 19:00:00 32 6 Sur 18 Sur 0 -- -- 47
2019-08-19 18:00:00 32.5 10 Sudoeste 15 Sudoeste 0 -- -- 37
2019-08-19 17:00:00 31.6 9 Sudoeste 15 Sudoeste 0 -- -- 39
2019-08-19 16:00:00 29 6 Sur 12 Sur 0 -- -- 59
2019-08-19 15:00:00 29.7 6 Sur 11 Sudeste 0 -- -- 63
2019-08-19 14:00:00 31 6 Sur 12 Sudeste 0 -- -- 42
2019-08-19 13:00:00 29.1 5 Sudeste 12 Sur 0 -- -- 55
2019-08-19 12:00:00 27.4 5 Sur 10 Sudeste 0 -- -- 69
2019-08-19 11:00:00 27 3 Sur 9 Sur 0 -- -- 69
2019-08-19 10:00:00 26.8 4 Sur 6 Sur 0 -- -- 66
2019-08-19 09:00:00 23.4 0 Calma 5 Nordeste 0 -- -- 59
2019-08-19 08:00:00 22.4 0 Calma 6 Noroeste 0 -- -- 52
2019-08-19 07:00:00 23 0 Calma 5 Sur 0 -- -- 53
2019-08-19 06:00:00 24.4 2 Este 6 Oeste 0 -- -- 47
2019-08-19 05:00:00 24 2 Noroeste 4 Oeste 0 -- -- 51
2019-08-19 04:00:00 24.6 0 Calma 8 Norte 0 -- -- 47
2019-08-19 03:00:00 26.2 3 Sudeste 12 Norte 0 -- -- 43
2019-08-19 02:00:00 26.3 0 Calma 9 Nordeste 0 -- -- 43
2019-08-19 01:00:00 24.3 2 Sudeste 6 Oeste 0 -- -- 51
2019-08-19 00:00:00 24.9 0 Calma 10 Este 0 -- -- 51
2019-08-18 23:00:00 26.4 0 Calma 5 Norte 0 -- -- 46
2019-08-18 22:00:00 28.2 0 Calma 8 Norte 0 -- -- 41
2019-08-18 21:00:00 29.4 2 Noroeste 9 Oeste 0 -- -- 44
2019-08-18 20:00:00 29.5 0 Calma 10 Sudoeste 0 -- -- 52
2019-08-18 19:00:00 30.6 6 Sur 15 Sudoeste 0 -- -- 41
2019-08-18 18:00:00 30.3 6 Sudoeste 14 Sur 0 -- -- 44
2019-08-18 17:00:00 29.6 8 Sudoeste 13 Sudoeste 0 -- -- 58
2019-08-18 16:00:00 30 6 Sur 12 Sudeste 0 -- -- 62
2019-08-18 15:00:00 29.4 6 Sur 12 Sur 0 -- -- 61
2019-08-18 14:00:00 28.6 8 Sur 13 Sudeste 0 -- -- 67
2019-08-18 13:00:00 28.3 6 Sur 11 Sur 0 -- -- 60
2019-08-18 12:00:00 27 5 Sur 10 Sur 0 -- -- 67
2019-08-18 11:00:00 25.5 4 Sur 8 Sudeste 0 -- -- 76
2019-08-18 10:00:00 24.2 4 Sur 10 Sur 0 -- -- 78
2019-08-18 09:00:00 22.9 3 Sudeste 13 Nordeste 0 -- -- 80
2019-08-18 08:00:00 23.2 3 Nordeste 9 Nordeste 0 -- -- 49
2019-08-18 07:00:00 24.3 4 Noroeste 16 Norte 0 -- -- 58
2019-08-18 06:00:00 26.6 13 Norte 18 Norte 0 -- -- 36
2019-08-18 05:00:00 26.6 8 Norte 14 Norte 0 -- -- 37
2019-08-18 04:00:00 26.2 11 Norte 16 Nordeste 0 -- -- 38
2019-08-18 03:00:00 26.2 11 Norte 15 Norte 0 -- -- 40
2019-08-18 02:00:00 23.6 4 Noroeste 8 Noroeste 0 -- -- 64
2019-08-18 01:00:00 25 3 Oeste 14 Norte 0 -- -- 63
2019-08-18 00:00:00 23.5 3 Sudeste 6 Norte 0 -- -- 78
2019-08-17 23:00:00 23.8 4 Norte 6 Nordeste 0 -- -- 78
2019-08-17 22:00:00 24.2 3 Noroeste 12 Noroeste 0 -- -- 80
2019-08-17 21:00:00 25.6 0 Calma 5 Sur 0 -- -- 78
2019-08-17 20:00:00 26.5 4 Sur 10 Sudoeste 0 -- -- 77
2019-08-17 19:00:00 26.9 6 Sudoeste 12 Sudoeste 0 -- -- 75
2019-08-17 18:00:00 27.6 6 Sur 15 Sur 0 -- -- 73
2019-08-17 17:00:00 27.4 7 Sudoeste 15 Sur 0 -- -- 75
2019-08-17 16:00:00 28.1 7 Sur 14 Sudeste 0 -- -- 72
2019-08-17 15:00:00 28 6 Sur 14 Sur 0 -- -- 69
2019-08-17 14:00:00 27.7 6 Sur 12 Sur 0 -- -- 73
2019-08-17 13:00:00 26.8 5 Sur 12 Sudeste 0 -- -- 77
2019-08-17 12:00:00 26.1 6 Sudeste 11 Sur 0 -- -- 76
2019-08-17 11:00:00 25.7 5 Sur 10 Sur 0 -- -- 69
2019-08-17 10:00:00 25.5 3 Sur 7 Sur 0 -- -- 66
2019-08-17 09:00:00 23.1 0 Calma 4 Sudeste 0 -- -- 67
2019-08-17 08:00:00 21.9 0 Calma 3 Este 0 -- -- 69
2019-08-17 07:00:00 22.1 0 Calma 6 Norte 0 -- -- 70
2019-08-17 06:00:00 22.4 5 Norte 12 Norte 0 -- -- 69
2019-08-17 05:00:00 22.5 8 Norte 10 Norte 0 -- -- 70
2019-08-17 04:00:00 22.5 4 Norte 6 Norte 0 -- -- 74
2019-08-17 03:00:00 22.6 4 Norte 8 Norte 0 -- -- 73
2019-08-17 02:00:00 22.9 2 Norte 7 Norte 0 -- -- 72
2019-08-17 01:00:00 22.9 5 Norte 6 Norte 0 -- -- 79
2019-08-17 00:00:00 23.3 0 Calma 7 Norte 0 -- -- 81
2019-08-16 23:00:00 23.9 2 Nordeste 5 Norte 0 -- -- 76
2019-08-16 22:00:00 24.9 0 Calma 4 Sudoeste 0 -- -- 76
2019-08-16 21:00:00 26.3 0 Calma 6 Sur 0 -- -- 69
2019-08-16 20:00:00 27.4 4 Sur 9 Sur 0 -- -- 59
2019-08-16 19:00:00 28.5 5 Sur 11 Sur 0 -- -- 54
2019-08-16 18:00:00 29.1 6 Sur 13 Sur 0 -- -- 52
2019-08-16 17:00:00 29.6 6 Sur 12 Sudeste 0 -- -- 53
2019-08-16 16:00:00 29.3 6 Sur 14 Sur 0 -- -- 54
2019-08-16 15:00:00 29.1 7 Sur 14 Sudoeste 0 -- -- 55
2019-08-16 14:00:00 30.3 6 Sur 12 Sudeste 0 -- -- 42
2019-08-16 13:00:00 29.4 6 Sur 12 Sur 0 -- -- 38
2019-08-16 12:00:00 29.5 6 Sur 10 Sur 0 -- -- 38
2019-08-16 11:00:00 28.2 4 Sur 8 Sur 0 -- -- 44
2019-08-16 10:00:00 26.8 3 Sudeste 9 Sudeste 0 -- -- 50
2019-08-16 09:00:00 24.4 0 Calma 11 Norte 0 -- -- 56
2019-08-16 08:00:00 23 7 Norte 10 Norte 0 -- -- 56
2019-08-16 07:00:00 22.7 5 Norte 7 Norte 0 -- -- 54
2019-08-16 06:00:00 23.5 5 Norte 8 Norte 0 -- -- 51
2019-08-16 05:00:00 23.1 2 Norte 8 Nordeste 0 -- -- 54
2019-08-16 04:00:00 23.2 0 Calma 7 Norte 0 -- -- 56
2019-08-16 03:00:00 23.1 3 Norte 6 Norte 0 -- -- 58
2019-08-16 02:00:00 23.3 2 Norte 4 Noroeste 0 -- -- 58
2019-08-16 01:00:00 23.8 3 Noroeste 6 Oeste 0 -- -- 59
2019-08-16 00:00:00 24.5 0 Calma 8 Norte 0 -- -- 59
2019-08-15 23:00:00 24.6 0 Calma -- -- 0 -- -- 59
2019-08-15 22:00:00 25.4 0 Calma 3 Sur 0 -- -- 58
2019-08-15 21:00:00 27.6 0 Calma 5 Sur 0 -- -- 56
2019-08-15 20:00:00 28.5 4 Sur 10 Sur 0 -- -- 55
2019-08-15 19:00:00 28.5 5 Sur 10 Sur 0 -- -- 59
2019-08-15 18:00:00 28.3 6 Sur 11 Sur 0 -- -- 64
2019-08-15 17:00:00 28.6 6 Sur 14 Sur 0 -- -- 64
2019-08-15 16:00:00 28.1 6 Sur 13 Sur 0 -- -- 62
2019-08-15 15:00:00 28.1 7 Sur 12 Sur 0 -- -- 66
2019-08-15 14:00:00 28.6 7 Sur 14 Sur 0 -- -- 65
2019-08-15 13:00:00 28.4 7 Sudeste 15 Sudeste 0 -- -- 60
2019-08-15 12:00:00 29.2 6 Sudoeste 10 Sudoeste 0 -- -- 56
2019-08-15 11:00:00 27.1 4 Sur 9 Sudoeste 0 -- -- 66
2019-08-15 10:00:00 25.2 3 Sur 6 Sur 0 -- -- 74
2019-08-15 09:00:00 23.3 0 Calma 6 Norte 0 -- -- 72
2019-08-15 08:00:00 21.9 6 Norte 9 Norte 0 -- -- 66
2019-08-15 07:00:00 21.6 5 Nordeste 9 Norte 0 -- -- 79
2019-08-15 06:00:00 21.4 0 Calma 8 Noroeste 0 -- -- 83
2019-08-15 05:00:00 21.6 0 Calma 6 Norte 0 -- -- 85
2019-08-15 04:00:00 21.6 0 Calma 6 Norte 0 -- -- 86
2019-08-15 03:00:00 21.9 2 Este 4 Norte 0 -- -- 86
2019-08-15 02:00:00 22.2 4 Norte 7 Norte 0 -- -- 80
2019-08-15 01:00:00 22.4 0 Calma -- -- 0 -- -- 87
2019-08-15 00:00:00 22.8 0 Calma -- -- 0 -- -- 87
2019-08-14 23:00:00 23.4 0 Calma -- -- 0 -- -- 85
2019-08-14 22:00:00 24.2 0 Calma 3 Sudoeste 0 -- -- 81
2019-08-14 21:00:00 25.2 0 Calma 9 Sur 0 -- -- 77
2019-08-14 20:00:00 26 5 Sudeste 10 Sur 0 -- -- 77
2019-08-14 19:00:00 27.1 5 Sur 12 Sur 0 -- -- 72
2019-08-14 18:00:00 27.8 6 Sur 14 Sur 0 -- -- 69
2019-08-14 17:00:00 28 9 Sur 15 Sur 0 -- -- 69
2019-08-14 16:00:00 27.7 8 Sur 18 Sur 0 -- -- 71
2019-08-14 15:00:00 28 7 Sur 17 Sudeste 0 -- -- 71
2019-08-14 14:00:00 27.2 9 Sudeste 19 Sudeste 0 -- -- 75
2019-08-14 13:00:00 26.3 7 Sudeste 17 Sudeste 0 -- -- 75
2019-08-14 12:00:00 26.1 5 Sudeste 14 Sudeste 0 -- -- 78
2019-08-14 11:00:00 25.3 3 Sur 6 Sudeste 0 -- -- 88
2019-08-14 10:00:00 24 3 Sudeste 8 Sudeste 0 -- -- 94
2019-08-14 09:00:00 23.5 3 Sudeste 8 Este 0 -- -- 95
2019-08-14 08:00:00 23.3 2 Sudeste 6 Este 1.2 -- -- 95
2019-08-14 07:00:00 23.3 4 Sudeste 13 Sudeste 1 -- -- 95
2019-08-14 06:00:00 23.5 3 Este 11 Este 1.2 -- -- 95
2019-08-14 05:00:00 24.1 4 Este 9 Sudeste 0 -- -- 91
2019-08-14 04:00:00 24.4 2 Sudeste 4 Sur 0 -- -- 88
2019-08-14 03:00:00 24.4 3 Sudeste 7 Este 0 -- -- 87
2019-08-14 02:00:00 24.4 0 Calma 5 Norte 0 -- -- 84
2019-08-14 01:00:00 24 0 Calma 9 Noroeste 0 -- -- 84
2019-08-14 00:00:00 24.3 4 Noroeste 7 Sudeste 0 -- -- 84
2019-08-13 23:00:00 24.9 2 Nordeste 7 Este 0 -- -- 81
2019-08-13 22:00:00 25.4 0 Calma 9 Sudeste 0 -- -- 80
2019-08-13 21:00:00 25.8 3 Sudeste 13 Sudeste 0 -- -- 78
2019-08-13 20:00:00 26.9 3 Sudeste 14 Este 0 -- -- 72
2019-08-13 19:00:00 28.1 8 Sudeste 15 Este 0 -- -- 67
2019-08-13 18:00:00 28.7 6 Sur 14 Sudoeste 0 -- -- 64
2019-08-13 17:00:00 29.1 8 Sur 15 Sur 0 -- -- 63
2019-08-13 16:00:00 29.4 9 Sur 16 Sur 0 -- -- 62
2019-08-13 15:00:00 30.6 9 Sur 18 Sudoeste 0 -- -- 56
2019-08-13 14:00:00 30.2 7 Sur 17 Sudeste 0 -- -- 55
2019-08-13 13:00:00 29.1 7 Sur 15 Sudeste 0 -- -- 58
2019-08-13 12:00:00 28.8 7 Sur 17 Sur 0 -- -- 58
2019-08-13 11:00:00 27.7 8 Sur 14 Sur 0 -- -- 62
2019-08-13 10:00:00 27.3 6 Sudoeste 10 Sudoeste 0 -- -- 60
2019-08-13 09:00:00 24.3 0 Calma 11 Noroeste 0 -- -- 69
2019-08-13 08:00:00 22.9 0 Calma 6 Noroeste 0 -- -- 78
2019-08-13 07:00:00 23.8 0 Calma 10 Norte 0 -- -- 76
2019-08-13 06:00:00 23.7 6 Norte 11 Norte 0 -- -- 64
2019-08-13 05:00:00 23.8 6 Norte 10 Norte 0 -- -- 60
2019-08-13 04:00:00 23.3 4 Norte 10 Norte 0 -- -- 58
2019-08-13 03:00:00 23.1 3 Noroeste 8 Norte 0 -- -- 57
2019-08-13 02:00:00 23 0 Calma 5 Noroeste 0 -- -- 65
2019-08-13 01:00:00 23.5 3 Nordeste 7 Norte 0 -- -- 54
2019-08-13 00:00:00 24 2 Norte 10 Norte 0 -- -- 48
2019-08-12 23:00:00 24.4 4 Norte 7 Norte 0 -- -- 47
2019-08-12 22:00:00 24.9 3 Nordeste 5 Nordeste 0 -- -- 50
2019-08-12 21:00:00 26.7 0 Calma 6 Sur 0 -- -- 52
2019-08-12 20:00:00 27.4 3 Sur 8 Sur 0 -- -- 53
2019-08-12 19:00:00 27.5 5 Sur 10 Sur 0 -- -- 54
2019-08-12 18:00:00 28.4 5 Sudeste 12 Sur 0 -- -- 51
2019-08-12 17:00:00 28.3 6 Sudeste 12 Sur 0 -- -- 50
2019-08-12 16:00:00 28.5 4 Sudeste 14 Sudoeste 0 -- -- 50
2019-08-12 15:00:00 28.1 3 Sudeste 10 Sudoeste 0 -- -- 40
2019-08-12 14:00:00 27.3 4 Sur 11 Sudeste 0 -- -- 52
2019-08-12 13:00:00 29.9 5 Sudeste 12 Sudeste 0 -- -- 32
2019-08-12 12:00:00 29.6 4 Sudeste 10 Sur 0 -- -- 26
2019-08-12 11:00:00 28.6 4 Sur 9 Sur 0 -- -- 28
2019-08-12 10:00:00 28.4 5 Sur 12 Este 0 -- -- 30
2019-08-12 09:00:00 26 4 Este 10 Norte 0 -- -- 32
2019-08-12 08:00:00 24.5 6 Norte 11 Norte 0 -- -- 30
2019-08-12 07:00:00 25.4 0 Calma 13 Norte 0 -- -- 28
2019-08-12 06:00:00 26 11 Norte 15 Norte 0 -- -- 28
2019-08-12 05:00:00 26.1 8 Norte 13 Norte 0 -- -- 29
2019-08-12 04:00:00 26.3 5 Norte 12 Norte 0 -- -- 28
2019-08-12 03:00:00 26.2 9 Norte 12 Norte 0 -- -- 29
2019-08-12 02:00:00 26.7 6 Norte 10 Norte 0 -- -- 29
2019-08-12 01:00:00 26.6 7 Norte 12 Norte 0 -- -- 32
2019-08-12 00:00:00 26.2 3 Norte 12 Norte 0 -- -- 38
2019-08-11 23:00:00 25.2 2 Norte 8 Norte 0 -- -- 47
2019-08-11 22:00:00 25.2 2 Oeste 6 Sudeste 0 -- -- 57
2019-08-11 21:00:00 26.9 0 Calma 6 Sur 0 -- -- 53
2019-08-11 20:00:00 28.7 3 Sur 13 Este 0 -- -- 48
2019-08-11 19:00:00 29.7 5 Sur 11 Sur 0 -- -- 45
2019-08-11 18:00:00 30.3 6 Sur 13 Sudeste 0 -- -- 46
2019-08-11 17:00:00 28.7 7 Sudeste 14 Sur 0 -- -- 52
2019-08-11 16:00:00 29 6 Sur 12 Sur 0 -- -- 50
2019-08-11 15:00:00 28.9 6 Sudeste 11 Sudeste 0 -- -- 51
2019-08-11 14:00:00 29.1 6 Sur 16 Sudeste 0 -- -- 48
2019-08-11 13:00:00 30.1 5 Sur 13 Sudeste 0 -- -- 43
2019-08-11 12:00:00 28.9 6 Sudeste 15 Este 0 -- -- 52
2019-08-11 11:00:00 28.7 5 Sur 9 Sudoeste 0 -- -- 57
2019-08-11 10:00:00 25.7 3 Sur 8 Este 0 -- -- 75
2019-08-11 09:00:00 23.3 2 Este 4 Sur 0 -- -- 72
2019-08-11 08:00:00 21.7 3 Nordeste 9 Norte 0 -- -- 79
2019-08-11 07:00:00 21.3 0 Calma 7 Noroeste 0 -- -- 91
2019-08-11 06:00:00 21.6 2 Noroeste 7 Oeste 0 -- -- 87
2019-08-11 05:00:00 22.1 0 Calma 13 Sudoeste 0 -- -- 86
2019-08-11 04:00:00 22.7 0 Calma 8 Este 0 -- -- 85
2019-08-11 03:00:00 23.3 5 Este 9 Este 0 -- -- 82
2019-08-11 02:00:00 23.8 2 Oeste 8 Sur 0 -- -- 78
2019-08-11 01:00:00 24.8 5 Este 16 Este 0 -- -- 69
2019-08-11 00:00:00 27.1 5 Este 9 Este 0 -- -- 58
2019-08-10 23:00:00 28.3 3 Este 10 Oeste 0 -- -- 56
2019-08-10 22:00:00 29.8 0 Calma 6 Oeste 0 -- -- 48
2019-08-10 21:00:00 32.3 4 Noroeste 6 Oeste 0 -- -- 41
2019-08-10 20:00:00 32.7 3 Oeste 9 Sur 0 -- -- 41
2019-08-10 19:00:00 32.9 6 Sur 15 Sur 0 -- -- 41
2019-08-10 18:00:00 33.6 9 Sur 14 Sur 0 -- -- 39
2019-08-10 17:00:00 32.9 7 Sur 13 Sur 0 -- -- 46
2019-08-10 16:00:00 31.4 8 Sur 14 Sudoeste 0 -- -- 53
2019-08-10 15:00:00 31.3 6 Sur 14 Sudoeste 0 -- -- 51
2019-08-10 14:00:00 31 6 Sur 12 Sur 0 -- -- 53
2019-08-10 13:00:00 29.4 5 Sudeste 12 Sudeste 0 -- -- 58
2019-08-10 12:00:00 27.8 7 Sudeste 17 Sudeste 0 -- -- 64
2019-08-10 11:00:00 29.7 5 Sudeste 10 Sur 0 -- -- 45
2019-08-10 10:00:00 29 4 Sudoeste 9 Este 0 -- -- 53
2019-08-10 09:00:00 28.1 0 Calma 10 Nordeste 0 -- -- 33
2019-08-10 08:00:00 26.7 4 Nordeste 8 Nordeste 0 -- -- 36
2019-08-10 07:00:00 25.8 3 Norte 8 Norte 0 -- -- 36
2019-08-10 06:00:00 25.9 2 Sudeste 8 Sudeste 0 -- -- 46
2019-08-10 05:00:00 24.3 5 Norte 8 Norte 0 -- -- 45
2019-08-10 04:00:00 23.8 3 Noroeste 10 Sur 0 -- -- 69
2019-08-10 03:00:00 26.8 0 Calma 8 Norte 0 -- -- 37
2019-08-10 02:00:00 27.5 0 Calma 5 Sudoeste 0 -- -- 35
2019-08-10 01:00:00 28.4 0 Calma 10 Noroeste 0 -- -- 34
2019-08-10 00:00:00 29.5 2 Oeste 9 Oeste 0 -- -- 34
2019-08-09 23:00:00 26.7 2 Nordeste 7 Sudoeste 0 -- -- 46
2019-08-09 22:00:00 26.5 0 Calma 9 Este 0 -- -- 61
2019-08-09 21:00:00 29.7 3 Este 7 Sur 0 -- -- 56
2019-08-09 20:00:00 32.6 3 Sudoeste 6 Sudeste 0 -- -- 44
2019-08-09 19:00:00 34.2 4 Sudoeste 10 Sur 0 -- -- 36
2019-08-09 18:00:00 32.8 5 Sur 15 Oeste 0 -- -- 46
2019-08-09 17:00:00 31.7 6 Sur 12 Sur 0 -- -- 52
2019-08-09 16:00:00 30.1 5 Sur 15 Sur 0 -- -- 54
2019-08-09 15:00:00 29.6 8 Sur 17 Sur 0 -- -- 51
2019-08-09 14:00:00 29.5 7 Sur 13 Sudoeste 0 -- -- 52
2019-08-09 13:00:00 27.8 5 Sur 11 Sur 0 -- -- 62
2019-08-09 12:00:00 27.9 4 Sudoeste 10 Sudoeste 0 -- -- 59
2019-08-09 11:00:00 28.9 3 Sur 6 Sur 0 -- -- 46
2019-08-09 10:00:00 26.8 4 Sur 8 Sur 0 -- -- 56
2019-08-09 09:00:00 24 3 Sudeste 6 Sur 0 -- -- 54
2019-08-09 08:00:00 24.1 2 Este 9 Nordeste 0 -- -- 41
2019-08-09 07:00:00 24.1 2 Norte 8 Norte 0 -- -- 43
2019-08-09 06:00:00 24.3 3 Noroeste 13 Oeste 0 -- -- 43
2019-08-09 05:00:00 24.6 4 Noroeste 9 Norte 0 -- -- 47
2019-08-09 04:00:00 25.8 2 Norte 14 Oeste 0 -- -- 42
2019-08-09 03:00:00 24.1 2 Nordeste 6 Norte 0 -- -- 58
2019-08-09 02:00:00 25.2 3 Nordeste 11 Norte 0 -- -- 42
2019-08-09 01:00:00 23.2 0 Calma 4 Sur 0 -- -- 73
2019-08-09 00:00:00 24.4 0 Calma 5 Sur 0 -- -- 72
2019-08-08 23:00:00 25.1 3 Nordeste 6 Sur 0 -- -- 66
2019-08-08 22:00:00 27.3 3 Sudeste 6 Sudeste 0 -- -- 52
2019-08-08 21:00:00 30 0 Calma 5 Sur 0 -- -- 44
2019-08-08 20:00:00 31.2 3 Sur 6 Sur 0 -- -- 38
2019-08-08 19:00:00 31.5 4 Sur 10 Sur 0 -- -- 39
2019-08-08 18:00:00 31.8 5 Sur 13 Sudeste 0 -- -- 45
2019-08-08 17:00:00 31.7 6 Sudeste 14 Sudeste 0 -- -- 45
2019-08-08 16:00:00 32 6 Sudeste 16 Sur 0 -- -- 45
2019-08-08 15:00:00 32.2 6 Sudeste 15 Sudeste 0 -- -- 42
2019-08-08 14:00:00 31.4 7 Sudeste 13 Sur 0 -- -- 46
2019-08-08 13:00:00 30.8 6 Sur 10 Sudeste 0 -- -- 50
2019-08-08 12:00:00 28.8 5 Sur 9 Sur 0 -- -- 60
2019-08-08 11:00:00 26.8 4 Sur 11 Sur 0 -- -- 66
2019-08-08 10:00:00 25.4 4 Sudoeste 12 Oeste 0 -- -- 70
2019-08-08 09:00:00 24.9 4 Sudeste 10 Este 0 -- -- 58
2019-08-08 08:00:00 24.4 2 Sudoeste 15 Oeste 0 -- -- 37
2019-08-08 07:00:00 26.8 5 Norte 10 Norte 0 -- -- 22
2019-08-08 06:00:00 28.7 5 Este 12 Nordeste 0 -- -- 21
2019-08-08 05:00:00 29.5 3 Este 15 Norte 0 -- -- 20
2019-08-08 04:00:00 31.1 9 Norte 18 Norte 0 -- -- 20
2019-08-08 03:00:00 31.7 12 Norte 16 Norte 0 -- -- 17
2019-08-08 02:00:00 29.8 0 Calma 10 Noroeste 0 -- -- 22
2019-08-08 01:00:00 30.9 7 Noroeste 16 Noroeste 0 -- -- 20
2019-08-08 00:00:00 30.3 4 Sur 14 Norte 0 -- -- 26
2019-08-07 23:00:00 28.9 3 Norte 8 Oeste 0 -- -- 32
2019-08-07 22:00:00 29 4 Nordeste 9 Nordeste 0 -- -- 39
2019-08-07 21:00:00 30.6 3 Nordeste 7 Norte 0 -- -- 38
2019-08-07 20:00:00 31.7 2 Sudeste 6 Sudeste 0 -- -- 44
2019-08-07 19:00:00 32.9 2 Sudeste 16 Sur 0 -- -- 41
2019-08-07 18:00:00 34.8 8 Sur 20 Sudoeste 0 -- -- 25
2019-08-07 17:00:00 34.8 10 Sur 21 Sudoeste 0 -- -- 27
2019-08-07 16:00:00 33.3 7 Sur 12 Sudeste 0 -- -- 35
2019-08-07 15:00:00 30.7 4 Sur 11 Sur 0 -- -- 46
2019-08-07 14:00:00 31.7 5 Sur 10 Sur 0 -- -- 42
2019-08-07 13:00:00 32.3 6 Sur 12 Sudoeste 0 -- -- 46
2019-08-07 12:00:00 29.6 4 Sur 10 Sudoeste 0 -- -- 57
2019-08-07 11:00:00 28.8 4 Sur 8 Sur 0 -- -- 57
2019-08-07 10:00:00 26.3 2 Sur 5 Sur 0 -- -- 63
2019-08-07 09:00:00 24.2 0 Calma 10 Norte 0 -- -- 59
2019-08-07 08:00:00 23.4 2 Sudeste 10 Norte 0 -- -- 44
2019-08-07 07:00:00 23.5 3 Nordeste 8 Sur 0 -- -- 46
2019-08-07 06:00:00 24.9 3 Norte 11 Norte 0 -- -- 39
2019-08-07 05:00:00 25.4 4 Norte 16 Norte 0 -- -- 36
2019-08-07 04:00:00 25.2 9 Norte 12 Norte 0 -- -- 38
2019-08-07 03:00:00 27 3 Nordeste 9 Norte 0 -- -- 34
2019-08-07 02:00:00 24.6 3 Norte 9 Norte 0 -- -- 41
2019-08-07 01:00:00 24.3 4 Este 17 Sudeste 0 -- -- 55
2019-08-07 00:00:00 26.3 3 Norte 8 Noroeste 0 -- -- 34
2019-08-06 23:00:00 26 3 Nordeste 10 Noroeste 0 -- -- 46
2019-08-06 22:00:00 27 4 Oeste 8 Oeste 0 -- -- 41
2019-08-06 21:00:00 28.1 2 Oeste 7 Oeste 0 -- -- 49
2019-08-06 20:00:00 29.8 5 Sur 8 Sur 0 -- -- 49
2019-08-06 19:00:00 29.8 5 Sur 12 Sudoeste 0 -- -- 56
2019-08-06 18:00:00 29.9 6 Sudoeste 12 Sudeste 0 -- -- 62
2019-08-06 17:00:00 30.5 7 Sudoeste 11 Sudoeste 0 -- -- 57
2019-08-06 16:00:00 30.4 6 Sur 13 Sur 0 -- -- 57
2019-08-06 15:00:00 29.7 6 Sur 13 Sur 0 -- -- 61
2019-08-06 14:00:00 28.7 6 Sur 15 Sudoeste 0 -- -- 65
2019-08-06 13:00:00 29.2 4 Sur 13 Sudeste 0 -- -- 57
2019-08-06 12:00:00 28.6 6 Sudeste 10 Sudeste 0 -- -- 63
2019-08-06 11:00:00 27.5 3 Sur 6 Sur 0 -- -- 67
2019-08-06 10:00:00 25.3 3 Sur 11 Sudeste 0 -- -- 80
2019-08-06 09:00:00 22.9 0 Calma 8 Sur 0 -- -- 86
2019-08-06 08:00:00 22.4 3 Sur 14 Sur 0 -- -- 82
2019-08-06 07:00:00 24.3 2 Sudeste 10 Norte 0 -- -- 61
2019-08-06 06:00:00 22.1 3 Norte 10 Noroeste 0 -- -- 73
2019-08-06 05:00:00 21.5 0 Calma 8 Norte 0 -- -- 86
2019-08-06 04:00:00 21.7 0 Calma 5 Norte 0 -- -- 86
2019-08-06 03:00:00 22.1 0 Calma 5 Oeste 0 -- -- 85
2019-08-06 02:00:00 22.6 0 Calma 9 Norte 0 -- -- 82
2019-08-06 01:00:00 22.7 0 Calma 10 Noroeste 0 -- -- 81
2019-08-06 00:00:00 23.3 3 Sudeste 6 Norte 0 -- -- 81
2019-08-05 23:00:00 23.6 0 Calma 8 Oeste 0 -- -- 85
2019-08-05 22:00:00 24.2 2 Sudeste 5 Sudeste 0 -- -- 84
2019-08-05 21:00:00 25.9 0 Calma 6 Sur 0 -- -- 74
2019-08-05 20:00:00 27.6 3 Sur 9 Sur 0 -- -- 66
2019-08-05 19:00:00 28.8 5 Sur 11 Sur 0 -- -- 59
2019-08-05 18:00:00 29.3 6 Sur 12 Sur 0 -- -- 57
2019-08-05 17:00:00 28.7 6 Sur 12 Sur 0 -- -- 62
2019-08-05 16:00:00 28.8 7 Sur 13 Sudeste 0 -- -- 61
2019-08-05 15:00:00 28 8 Sudoeste 14 Sur 0 -- -- 61
2019-08-05 14:00:00 27.6 6 Sudoeste 12 Sudeste 0 -- -- 61
2019-08-05 13:00:00 27.1 6 Sudeste 17 Sudeste 0 -- -- 66
2019-08-05 12:00:00 26.6 6 Sudeste 14 Sur 0 -- -- 76
2019-08-05 11:00:00 26.5 6 Sudeste 14 Sudeste 0 -- -- 73
2019-08-05 10:00:00 24.9 4 Oeste 10 Sur 0 -- -- 76
2019-08-05 09:00:00 23.5 5 Sudeste 10 Sudeste 0 -- -- 79
2019-08-05 08:00:00 23.1 3 Sudeste 9 Sudeste 0 -- -- 67
2019-08-05 07:00:00 22.4 0 Calma 5 Nordeste 0 -- -- 70
2019-08-05 06:00:00 22.1 0 Calma 6 Norte 0 -- -- 73
2019-08-05 05:00:00 22.2 2 Este 6 Norte 0 -- -- 72
2019-08-05 04:00:00 22.3 0 Calma 6 Noroeste 0 -- -- 74
2019-08-05 03:00:00 22.4 3 Oeste 8 Oeste 0 -- -- 83
2019-08-05 02:00:00 23.1 0 Calma 5 Nordeste 0 -- -- 79
2019-08-05 01:00:00 23.4 0 Calma 8 Este 0 -- -- 72
2019-08-05 00:00:00 23.7 0 Calma 8 Norte 0 -- -- 72
2019-08-04 23:00:00 24.2 0 Calma 4 Oeste 0 -- -- 75
2019-08-04 22:00:00 24.8 3 Sudoeste 5 Sudoeste 0 -- -- 68
2019-08-04 21:00:00 26.8 3 Sudoeste 6 Sur 0 -- -- 60
2019-08-04 20:00:00 28 4 Sur 9 Sur 0 -- -- 60
2019-08-04 19:00:00 27.8 3 Sur 13 Sur 0 -- -- 63
2019-08-04 18:00:00 27.9 5 Sur 12 Sur 0 -- -- 65
2019-08-04 17:00:00 29.2 7 Sur 14 Sur 0 -- -- 56
2019-08-04 16:00:00 28.6 7 Sur 15 Sur 0 -- -- 58
2019-08-04 15:00:00 29.1 6 Sur 15 Sur 0 -- -- 53
2019-08-04 14:00:00 28.4 6 Sur 14 Sur 0 -- -- 62
2019-08-04 13:00:00 26.7 6 Sur 13 Sudeste 0 -- -- 70
2019-08-04 12:00:00 25.5 5 Sur 12 Sudeste 0 -- -- 74
2019-08-04 11:00:00 25.8 4 Sur 11 Sur 0 -- -- 73
2019-08-04 10:00:00 25.5 3 Sur 9 Sur 0 -- -- 71
2019-08-04 09:00:00 24.5 0 Calma 5 Sudoeste 0 -- -- 69
2019-08-04 08:00:00 23.3 0 Calma 3 Noroeste 0 -- -- 73
2019-08-04 07:00:00 24 4 Nordeste 12 Norte 0 -- -- 71
2019-08-04 06:00:00 24.2 3 Norte 13 Noroeste 0 -- -- 68
2019-08-04 05:00:00 23.9 4 Norte 10 Norte 0 -- -- 70
2019-08-04 04:00:00 23.6 7 Norte 9 Norte 0 -- -- 72
2019-08-04 03:00:00 23.5 7 Norte 10 Norte 0 -- -- 75
2019-08-04 02:00:00 23.5 3 Noroeste 9 Norte 0 -- -- 76
2019-08-04 01:00:00 23.8 2 Norte 8 Norte 0 -- -- 77
2019-08-04 00:00:00 24.2 0 Calma 5 Norte 0 -- -- 76
2019-08-03 23:00:00 24.7 0 Calma 6 Noroeste 0 -- -- 74
2019-08-03 22:00:00 25.2 0 Calma 6 Sudoeste 0 -- -- 74
2019-08-03 21:00:00 26.1 2 Sudoeste 9 Sudeste 0 -- -- 73
2019-08-03 20:00:00 26.8 6 Sudoeste 14 Sur 0 -- -- 67
2019-08-03 19:00:00 27.7 6 Sur 13 Sur 0 -- -- 64
2019-08-03 18:00:00 27.9 6 Sur 14 Sur 0 -- -- 68
2019-08-03 17:00:00 28 8 Sur 17 Sur 0 -- -- 65
2019-08-03 16:00:00 28.1 7 Sudeste 15 Sudeste 0 -- -- 66
2019-08-03 15:00:00 28.9 7 Sur 13 Sudoeste 0 -- -- 61
2019-08-03 14:00:00 28.8 6 Sudeste 15 Sudeste 0 -- -- 61
2019-08-03 13:00:00 27.5 5 Sur 13 Sudeste 0 -- -- 70
2019-08-03 12:00:00 27.3 7 Sur 13 Sur 0 -- -- 70
2019-08-03 11:00:00 25.7 5 Sur 13 Sudeste 0 -- -- 75
2019-08-03 10:00:00 24.8 4 Sur 9 Sur 0 -- -- 77
2019-08-03 09:00:00 23.9 5 Sur 9 Sur 0 -- -- 78
2019-08-03 08:00:00 22.3 0 Calma 7 Nordeste 0 -- -- 80
2019-08-03 07:00:00 22.7 6 Norte 8 Norte 0 -- -- 79
2019-08-03 06:00:00 22.7 0 Calma 12 Norte 0 -- -- 79
2019-08-03 05:00:00 22.4 6 Norte 12 Norte 0 -- -- 84
2019-08-03 04:00:00 21.9 2 Nordeste 6 Norte 0 -- -- 88
2019-08-03 03:00:00 22.1 2 Oeste 8 Noroeste 0 -- -- 89
2019-08-03 02:00:00 22.5 0 Calma 7 Norte 0 -- -- 89
2019-08-03 01:00:00 22.8 0 Calma 8 Nordeste 0 -- -- 88
2019-08-03 00:00:00 23.2 0 Calma 6 Norte 0 -- -- 89
2019-08-02 23:00:00 23.7 4 Este 6 Sudeste 0 -- -- 89
2019-08-02 22:00:00 24.1 2 Este 6 Sudoeste 0 -- -- 88
2019-08-02 21:00:00 26.1 0 Calma 6 Sudoeste 0 -- -- 75
2019-08-02 20:00:00 26.9 4 Sur 9 Sudeste 0 -- -- 72
2019-08-02 19:00:00 29.3 5 Sur 10 Sur 0 -- -- 59
2019-08-02 18:00:00 29.1 5 Sur 11 Sur 0 -- -- 61
2019-08-02 17:00:00 27.8 6 Sur 13 Sur 0 -- -- 69
2019-08-02 16:00:00 28 8 Sur 16 Sur 0 -- -- 68
2019-08-02 15:00:00 27.8 6 Sur 14 Sur 0 -- -- 68
2019-08-02 14:00:00 27 7 Sur 15 Sudoeste 0 -- -- 70
2019-08-02 13:00:00 26.1 7 Sur 14 Sudeste 0 -- -- 72
2019-08-02 12:00:00 26 6 Sur 13 Sudeste 0 -- -- 77
2019-08-02 11:00:00 25.1 6 Sur 13 Sudeste 0 -- -- 79
2019-08-02 10:00:00 25.4 5 Sur 9 Sudeste 0 -- -- 72
2019-08-02 09:00:00 23.7 5 Este 15 Este 0 -- -- 77
2019-08-02 08:00:00 23.7 7 Norte 14 Noroeste 0 -- -- 74
2019-08-02 07:00:00 22.7 6 Norte 9 Norte 0 -- -- 77
2019-08-02 06:00:00 22.3 3 Norte 10 Oeste 0 -- -- 80
2019-08-02 05:00:00 22 0 Calma 6 Norte 0 -- -- 83
2019-08-02 04:00:00 22.3 5 Norte 6 Norte 0 -- -- 84
2019-08-02 03:00:00 22.8 2 Sudeste 10 Norte 0 -- -- 82
2019-08-02 02:00:00 23 6 Norte 9 Norte 0 -- -- 82
2019-08-02 01:00:00 23.4 2 Oeste 9 Noroeste 0 -- -- 80
2019-08-02 00:00:00 23.5 0 Calma 6 Nordeste 0 -- -- 77
2019-08-01 23:00:00 24.1 5 Nordeste 8 Norte 0 -- -- 76
2019-08-01 22:00:00 24.8 3 Sudeste 8 Sur 0 -- -- 73
2019-08-01 21:00:00 25.5 3 Sur 13 Sur 0 -- -- 72
2019-08-01 20:00:00 26.3 9 Sur 15 Sudoeste 0 -- -- 72
2019-08-01 19:00:00 27.7 8 Sudoeste 15 Sudoeste 0 -- -- 67
2019-08-01 18:00:00 29.3 8 Sur 16 Sur 0 -- -- 60
2019-08-01 17:00:00 28.8 8 Sur 19 Sudoeste 0 -- -- 61
2019-08-01 16:00:00 29.2 9 Sur 19 Sudeste 0 -- -- 58
2019-08-01 15:00:00 28.5 7 Sudeste 15 Sur 0 -- -- 57
2019-08-01 14:00:00 28.9 9 Sur 18 Sudeste 0 -- -- 55
2019-08-01 13:00:00 28.6 7 Sur 15 Este 0 -- -- 60
2019-08-01 12:00:00 27.7 6 Sudeste 13 Sudeste 0 -- -- 63
2019-08-01 11:00:00 26.5 5 Sur 9 Sudeste 0 -- -- 68
2019-08-01 10:00:00 25.5 4 Sur 14 Sur 0 -- -- 73
2019-08-01 09:00:00 23.9 5 Norte 10 Nordeste 0 -- -- 77
2019-08-01 08:00:00 22 0 Calma 7 Norte 0 -- -- 85
2019-08-01 07:00:00 21.5 4 Nordeste 6 Nordeste 0 -- -- 87
2019-08-01 06:00:00 21.7 2 Noroeste 8 Nordeste 0 -- -- 85
2019-08-01 05:00:00 22.1 4 Nordeste 10 Nordeste 0 -- -- 87
2019-08-01 04:00:00 22.3 0 Calma 7 Noroeste 0 -- -- 84
2019-08-01 03:00:00 22.4 3 Nordeste 8 Noroeste 0 -- -- 84
2019-08-01 02:00:00 22.7 2 Sudoeste 12 Oeste 0 -- -- 84
2019-08-01 01:00:00 22.6 4 Noroeste 9 Noroeste 0 -- -- 84
2019-08-01 00:00:00 23.2 0 Calma 8 Sudoeste 0 -- -- 82
2019-07-31 23:00:00 23.6 3 Sudoeste 11 Oeste 0 -- -- 82
2019-07-31 22:00:00 24.1 4 Sudoeste 12 Sudoeste 0 -- -- 80
2019-07-31 21:00:00 24.8 7 Sur 18 Sudoeste 0 -- -- 77
2019-07-31 20:00:00 25.9 12 Sudoeste 21 Sudoeste 0 -- -- 72
2019-07-31 19:00:00 27.3 10 Sudoeste 17 Sudoeste 0 -- -- 66
2019-07-31 18:00:00 28.4 6 Sur 14 Sudoeste 0 -- -- 60
2019-07-31 17:00:00 29.6 6 Sur 16 Sudoeste 0 -- -- 55
2019-07-31 16:00:00 29.1 7 Sur 18 Sur 0 -- -- 53
2019-07-31 15:00:00 29.4 9 Sur 18 Sudoeste 0 -- -- 52
2019-07-31 14:00:00 28.7 8 Sur 15 Sur 0 -- -- 53
2019-07-31 13:00:00 28.4 7 Sur 16 Sur 0 -- -- 62
2019-07-31 12:00:00 27.2 10 Sur 17 Sur 0 -- -- 65
2019-07-31 11:00:00 26.5 6 Sur 13 Sudoeste 0 -- -- 66
2019-07-31 10:00:00 25.8 9 Noroeste 23 Oeste 0 -- -- 65
2019-07-31 09:00:00 23.8 2 Nordeste 12 Nordeste 0 -- -- 74
2019-07-31 08:00:00 23.1 9 Norte 26 Norte 0 -- -- 73
2019-07-31 07:00:00 22.6 16 Norte 24 Norte 0 -- -- 76
2019-07-31 06:00:00 22.8 4 Noroeste 15 Oeste 0 -- -- 78
2019-07-31 05:00:00 23.2 5 Sur 18 Oeste 0 -- -- 73
2019-07-31 04:00:00 22.6 5 Oeste 12 Sudoeste 0 -- -- 73
2019-07-31 03:00:00 23.8 5 Oeste 29 Sudeste 0 -- -- 74
2019-07-31 02:00:00 27 16 Nordeste 37 Nordeste 0 -- -- 48
2019-07-31 01:00:00 23.3 3 Norte 9 Nordeste 0 -- -- 69
2019-07-31 00:00:00 23.7 2 Este 8 Este 0 -- -- 69
2019-07-30 23:00:00 23.8 3 Oeste 9 Sudeste 0 -- -- 70
2019-07-30 22:00:00 26.1 4 Sudeste 9 Sudeste 0 -- -- 63
2019-07-30 21:00:00 28.1 5 Oeste 9 Oeste 0 -- -- 53
2019-07-30 20:00:00 28 4 Sur 10 Sudoeste 0 -- -- 62
2019-07-30 19:00:00 29.4 5 Sur 10 Sur 0 -- -- 57
2019-07-30 18:00:00 30.3 6 Sur 10 Sudeste 0 -- -- 55
2019-07-30 17:00:00 30.9 5 Sur 9 Sur 0 -- -- 51
2019-07-30 16:00:00 30.7 6 Sur 11 Sur 0 -- -- 50
2019-07-30 15:00:00 29.6 5 Sur 13 Sur 0 -- -- 53
2019-07-30 14:00:00 28.3 6 Sur 12 Sudeste 0 -- -- 59
2019-07-30 13:00:00 27 6 Sudeste 13 Sudeste 0 -- -- 63
2019-07-30 12:00:00 25.8 7 Sudeste 15 Sudeste 0 -- -- 67
2019-07-30 11:00:00 25 4 Sudeste 12 Sudeste 0 -- -- 68
2019-07-30 10:00:00 23.8 4 Sur 7 Sur 0 -- -- 76
2019-07-30 09:00:00 22.4 3 Sudoeste 7 Noroeste 0 -- -- 69
2019-07-30 08:00:00 19.9 3 Oeste 7 Oeste 0 -- -- 72
2019-07-30 07:00:00 21 0 Calma 9 Norte 0 -- -- 70
2019-07-30 06:00:00 20 2 Este 6 Sudeste 0 -- -- 77
2019-07-30 05:00:00 20.2 4 Noroeste 8 Noroeste 0 -- -- 82
2019-07-30 04:00:00 20.5 0 Calma 6 Norte 0 -- -- 77
2019-07-30 03:00:00 20.7 0 Calma 6 Norte 0 -- -- 75
2019-07-30 02:00:00 20.1 2 Noroeste 8 Este 0 -- -- 79
2019-07-30 01:00:00 21.1 4 Este 8 Este 0 -- -- 86
2019-07-30 00:00:00 22 4 Este 8 Este 0 -- -- 82
2019-07-29 23:00:00 23.3 0 Calma 5 Sudeste 0 -- -- 75
2019-07-29 22:00:00 25.2 0 Calma 7 Norte 0 -- -- 67
2019-07-29 21:00:00 28.2 4 Norte 9 Sudoeste 0 -- -- 54
2019-07-29 20:00:00 27.9 5 Sur 11 Sudoeste 0 -- -- 57
2019-07-29 19:00:00 28.1 6 Sur 14 Sudoeste 0 -- -- 58
2019-07-29 18:00:00 28.5 8 Sudoeste 19 Sur 0 -- -- 51
2019-07-29 17:00:00 27.6 8 Sur 16 Sudoeste 0 -- -- 52
2019-07-29 16:00:00 26.5 5 Sur 12 Sur 0 -- -- 63
2019-07-29 15:00:00 26.4 6 Sur 13 Sur 0 -- -- 62
2019-07-29 14:00:00 25.7 7 Sur 13 Sur 0 -- -- 66
2019-07-29 13:00:00 25.9 6 Sur 13 Sudeste 0 -- -- 63
2019-07-29 12:00:00 26.3 4 Sur 9 Sur 0 -- -- 59
2019-07-29 11:00:00 25.6 5 Sudoeste 9 Sudoeste 0 -- -- 65
2019-07-29 10:00:00 24.2 3 Sur 9 Sur 0 -- -- 70
2019-07-29 09:00:00 23.1 0 Calma 8 Norte 0 -- -- 65
2019-07-29 08:00:00 20 3 Nordeste 8 Norte 0 -- -- 73
2019-07-29 07:00:00 20 3 Este 7 Norte 0 -- -- 83
2019-07-29 06:00:00 21.1 4 Nordeste 9 Norte 0 -- -- 71
2019-07-29 05:00:00 21.6 0 Calma 9 Norte 0 -- -- 65
2019-07-29 04:00:00 21.5 4 Norte 7 Norte 0 -- -- 65
2019-07-29 03:00:00 21 0 Calma 5 Oeste 0 -- -- 72
2019-07-29 02:00:00 21.4 0 Calma 4 Sudeste 0 -- -- 76
2019-07-29 01:00:00 22.1 0 Calma 4 Oeste 0 -- -- 67
2019-07-29 00:00:00 23.3 0 Calma 6 Norte 0 -- -- 62
2019-07-28 23:00:00 23.9 0 Calma 5 Norte 0 -- -- 61
2019-07-28 22:00:00 24.8 0 Calma 4 Noroeste 0 -- -- 62
2019-07-28 21:00:00 25.7 0 Calma 8 Sur 0 -- -- 59
2019-07-28 20:00:00 27.2 5 Sudoeste 9 Sur 0 -- -- 57
2019-07-28 19:00:00 27.9 5 Sur 9 Sudoeste 0 -- -- 55
2019-07-28 18:00:00 27.9 6 Sur 14 Sur 0 -- -- 58
2019-07-28 17:00:00 27.8 7 Sur 14 Sur 0 -- -- 55
2019-07-28 16:00:00 27.1 7 Sur 16 Sudoeste 0 -- -- 62
2019-07-28 15:00:00 26.6 8 Sur 22 Sur 0 -- -- 63
2019-07-28 14:00:00 25.8 9 Sur 17 Sur 0 -- -- 65
2019-07-28 13:00:00 26.1 6 Sur 13 Sur 0 -- -- 64
2019-07-28 12:00:00 25.1 6 Sur 12 Sur 0 -- -- 66
2019-07-28 11:00:00 24.7 5 Sudeste 10 Sudeste 0 -- -- 68
2019-07-28 10:00:00 24.7 3 Sur 8 Sudeste 0 -- -- 68
2019-07-28 09:00:00 22.1 2 Sur 4 Noroeste 0 -- -- 71
2019-07-28 08:00:00 20.7 2 Oeste 5 Norte 0 -- -- 69
2019-07-28 07:00:00 21 3 Este 10 Norte 0 -- -- 68
2019-07-28 06:00:00 21.4 2 Este 8 Sudeste 0 -- -- 66
2019-07-28 05:00:00 21.2 2 Sur 7 Sur 0 -- -- 69
2019-07-28 04:00:00 22 3 Este 10 Nordeste 0 -- -- 70
2019-07-28 03:00:00 23.7 5 Nordeste 19 Este 0 -- -- 60
2019-07-28 02:00:00 23.6 4 Sudeste 14 Norte 0 -- -- 61
2019-07-28 01:00:00 24.4 3 Este 14 Norte 0 -- -- 59
2019-07-28 00:00:00 25.2 4 Nordeste 10 Este 0 -- -- 56
2019-07-27 23:00:00 27.1 5 Este 32 Norte 0 -- -- 52
2019-07-26 12:00:00 -- -- -- -- -- -- -- -- --
2019-07-26 11:00:00 -- -- -- -- -- -- -- -- --
2019-07-26 10:00:00 -- -- -- -- -- -- -- -- --
2019-07-26 09:00:00 22.9 0 Calma 4 Noroeste 0 -- -- 65
2019-07-26 08:00:00 21.6 4 Noroeste 13 Oeste 0 -- -- 59
2019-07-26 07:00:00 21.7 0 Calma 10 Norte 0 -- -- 53
2019-07-26 06:00:00 20.7 3 Norte 11 Oeste 0 -- -- 68
2019-07-26 05:00:00 20.8 0 Calma 8 Noroeste 0 -- -- 69
2019-07-26 04:00:00 20.8 3 Nordeste 10 Nordeste 0 -- -- 81
2019-07-26 03:00:00 21.7 7 Nordeste 11 Norte 0 -- -- 80
2019-07-26 02:00:00 22.2 2 Oeste 8 Nordeste 0 -- -- 79
2019-07-26 01:00:00 23 3 Este 8 Nordeste 0 -- -- 75
2019-07-26 00:00:00 23.9 0 Calma 10 Norte 0 -- -- 70
2019-07-25 23:00:00 24.7 0 Calma 10 Norte 0 -- -- 65
2019-07-25 22:00:00 25.8 4 Norte 6 Norte 0 -- -- 63
2019-07-25 21:00:00 27.2 5 Sudoeste 12 Sur 0 -- -- 60
2019-07-25 20:00:00 28.1 8 Sudoeste 13 Sudoeste 0 -- -- 59
2019-07-25 19:00:00 29 8 Sudoeste 15 Sudoeste 0 -- -- 55
2019-07-25 18:00:00 29.5 8 Sur 16 Sudoeste 0 -- -- 55
2019-07-25 17:00:00 29.5 10 Sudoeste 15 Sur 0 -- -- 56
2019-07-25 16:00:00 30.2 8 Sur 16 Sur 0 -- -- 55
2019-07-25 15:00:00 30 9 Sur 18 Sur 0 -- -- 57
2019-07-25 14:00:00 29.1 9 Sur 16 Sur 0 -- -- 60
2019-07-25 13:00:00 28.9 7 Sur 13 Sudeste 0 -- -- 60
2019-07-25 12:00:00 28.4 7 Sur 15 Sur 0 -- -- 57
2019-07-25 11:00:00 27.9 6 Sur 12 Sudoeste 0 -- -- 60
2019-07-25 10:00:00 26.7 6 Sur 11 Sur 0 -- -- 63
2019-07-25 09:00:00 24.8 0 Calma 5 Norte 0 -- -- 66
2019-07-25 08:00:00 23.2 0 Calma 9 Norte 0 -- -- 66
2019-07-25 07:00:00 22.6 2 Norte 7 Norte 0 -- -- 71
2019-07-25 06:00:00 23.2 4 Norte 12 Norte 0 -- -- 70
2019-07-25 05:00:00 22.9 4 Norte 10 Norte 0 -- -- 76
2019-07-25 04:00:00 23.2 3 Noroeste 9 Norte 0 -- -- 77
2019-07-25 03:00:00 23.2 3 Norte 10 Norte 0 -- -- 74
2019-07-25 02:00:00 23.7 7 Norte 13 Norte 0 -- -- 79
2019-07-25 01:00:00 23.6 4 Norte 9 Norte 0 -- -- 76
2019-07-25 00:00:00 24 6 Norte 10 Norte 0 -- -- 71
2019-07-24 23:00:00 24.4 4 Norte 8 Norte 0 -- -- 67
2019-07-24 22:00:00 25.4 0 Calma 4 Sudeste 0 -- -- 63
2019-07-24 21:00:00 27.1 0 Calma 9 Sur 0 -- -- 58
2019-07-24 20:00:00 27.9 5 Sur 13 Sur 0 -- -- 56
2019-07-24 19:00:00 28.9 8 Sudoeste 14 Sur 0 -- -- 54
2019-07-24 18:00:00 29.8 8 Sur 16 Sur 0 -- -- 54
2019-07-24 17:00:00 30.3 7 Sur 17 Sur 0 -- -- 52
2019-07-24 16:00:00 29.6 9 Sur 18 Sudoeste 0 -- -- 55
2019-07-24 15:00:00 29.1 11 Sudoeste 19 Sudoeste 0 -- -- 54
2019-07-24 14:00:00 28.6 9 Sur 16 Sur 0 -- -- 61
2019-07-24 13:00:00 27.5 9 Sudoeste 16 Sur 0 -- -- 68
2019-07-24 12:00:00 27.1 8 Sur 14 Sur 0 -- -- 71
2019-07-24 11:00:00 26.2 6 Sur 12 Sudoeste 0 -- -- 75
2019-07-24 10:00:00 25.3 4 Sudeste 9 Sur 0 -- -- 77
2019-07-24 09:00:00 23.9 0 Calma 5 Sur 0 -- -- 77
2019-07-24 08:00:00 22.4 2 Este 8 Norte 0 -- -- 74
2019-07-24 07:00:00 22.4 6 Norte 10 Norte 0 -- -- 68
2019-07-24 06:00:00 23 0 Calma 8 Norte 0 -- -- 65
2019-07-24 05:00:00 23.2 0 Calma 8 Nordeste 0 -- -- 65
2019-07-24 04:00:00 23 6 Norte 9 Norte 0 -- -- 67
2019-07-24 03:00:00 22.6 2 Nordeste 10 Norte 0 -- -- 76
2019-07-24 02:00:00 22.6 2 Nordeste 10 Norte 0 -- -- 76
2019-07-24 01:00:00 22.8 0 Calma 7 Norte 0 -- -- 76
2019-07-24 00:00:00 23.3 0 Calma 12 Norte 0 -- -- 75